createdAt,value
2022-08-07T20:06:02.223Z,1.52
2022-08-07T20:08:32.510Z,2.45
2022-08-07T20:11:03.941Z,1.40
2022-08-07T20:13:44.748Z,1.70
2022-08-07T20:16:32.264Z,1.85
2022-08-07T20:19:10.621Z,1.90
2022-08-07T20:21:47.469Z,2.15
2022-08-07T20:24:22.267Z,1.73
2022-08-07T20:26:52.274Z,1.50
2022-08-07T20:29:48.092Z,2.65
2022-08-07T20:32:22.881Z,2.17
2022-08-07T20:34:55.015Z,2.50
2022-08-07T20:37:29.274Z,2.85
2022-08-07T20:40:03.834Z,2.50
2022-08-07T20:42:33.432Z,1.60
2022-08-07T20:45:04.462Z,1.98
2022-08-07T20:47:56.609Z,2.15
2022-08-07T20:50:27.866Z,3.67
2022-08-07T20:52:58.022Z,2.33
2022-08-07T20:55:25.970Z,3.58
2022-08-07T20:58:02.878Z,1.90
2022-08-07T21:00:33.998Z,2.10
2022-08-07T21:03:03.040Z,2.17
2022-08-07T21:05:54.550Z,2.72
2022-08-07T21:08:36.615Z,1.70
2022-08-07T21:11:10.855Z,2.28
2022-08-07T21:13:57.919Z,2.35
2022-08-07T21:16:32.405Z,4.22
2022-08-07T21:19:01.040Z,2.50
2022-08-07T21:21:33.244Z,3.20
2022-08-07T21:24:25.819Z,3.00
2022-08-07T21:27:01.520Z,2.78
2022-08-07T21:29:42.321Z,2.67
2022-08-07T21:32:48.047Z,2.22
2022-08-07T21:35:13.879Z,2.92
2022-08-07T21:37:59.221Z,3.67
2022-08-07T21:40:35.986Z,2.97
2022-08-07T21:43:10.670Z,2.30
2022-08-07T21:46:07.573Z,2.95
2022-08-07T21:48:42.389Z,4.03
2022-08-07T21:51:19.509Z,2.47
2022-08-07T21:53:53.062Z,2.67
2022-08-07T21:56:35.809Z,2.60
2022-08-07T21:59:06.619Z,4.07
2022-08-07T22:02:11.523Z,2.90
2022-08-07T22:04:29.914Z,3.13
2022-08-07T22:07:02.097Z,3.40
2022-08-07T22:09:53.617Z,2.83
2022-08-07T22:12:31.346Z,3.50
2022-08-07T22:16:40.275Z,2.95
2022-08-07T22:17:57.889Z,3.15
2022-08-07T22:20:31.477Z,3.83
2022-08-07T22:23:06.945Z,3.42
2022-08-07T22:25:42.344Z,2.97
2022-08-07T22:28:30.873Z,3.40
2022-08-07T22:31:05.605Z,3.90
2022-08-07T22:33:56.813Z,5.32
2022-08-07T22:36:32.906Z,4.05
2022-08-07T22:39:04.617Z,5.25
2022-08-07T22:42:03.539Z,4.05
2022-08-07T22:44:26.788Z,4.40
2022-08-07T22:47:17.347Z,4.57
2022-08-07T22:50:07.830Z,3.83
2022-08-07T22:53:05.228Z,4.68
2022-08-07T22:55:44.203Z,3.95
2022-08-07T22:58:47.688Z,5.88
2022-08-07T23:01:50.233Z,3.40
2022-08-07T23:04:57.004Z,4.47
2022-08-07T23:07:41.436Z,3.78
2022-08-07T23:10:36.363Z,3.85
2022-08-07T23:13:29.008Z,3.38
2022-08-07T23:16:05.523Z,4.72
2022-08-07T23:19:11.402Z,4.28
2022-08-07T23:21:44.409Z,3.90
2022-08-07T23:24:24.457Z,3.80
2022-08-07T23:27:12.738Z,3.97
2022-08-07T23:30:35.660Z,3.90
2022-08-07T23:34:36.418Z,3.70
2022-08-07T23:36:28.798Z,4.30
2022-08-07T23:39:02.600Z,4.07
2022-08-07T23:42:01.857Z,4.20
2022-08-07T23:44:46.414Z,3.97
2022-08-07T23:47:29.684Z,3.97
2022-08-07T23:50:16.191Z,5.17
2022-08-07T23:52:53.901Z,4.85
2022-08-07T23:55:52.122Z,4.88
2022-08-07T23:58:26.614Z,4.30
